Marion, TX (78124)

3:03 AM CDT on April 01, 2015 (GMT -0500)
Marion | | Change Station
CLOSE
Current Station
Personal Weather Station
Location: Seguin, TX
Elevation: 656 ft
Nearby Weather Stations

Elev 656 ft 29.55 °N, 98.13 °W | Updated 3 minutes ago

Overcast
Overcast
67.6 °F
Feels Like 67.6 °F
N
3.0
Wind Variable Wind from SW
Gusts 5.0 mph

Today
High -- | Low -- °F
--% Chance of Precip.
Yesterday
High -- | Low -- °F
Precip. -- in
7:22 AM 7:50 PM
Waxing Gibbous, 91% visible
Pressure 29.94 in
Visibility 10.0 miles
Clouds Mostly Cloudy 700 ft
Overcast 1500 ft
Dew Point 66 °F
Humidity 94%
Rainfall 0.00 in
Snow Depth Not available.
UV 0 out of 12
Pollen 10.40 out of 12
Air Quality Not available.
Flu Activity Not available.
METAR KRND 010758Z AUTO 18008KT 10SM BKN007 OVC015 20/19 A2995 RMK AO2 SLP136

More Conditions Fewer Conditions

Pressure 29.94 in
Visibility 10.0 miles
Clouds Mostly Cloudy 700 ft
Overcast 1500 ft
Dew Point 66 °F
Humidity 94%
Rainfall 0.00 in
Snow Depth Not available.
UV 0 out of 12
Pollen 10.40 out of 12
Air Quality Not available.
Flu Activity Not available.
METAR KRND 010758Z AUTO 18008KT 10SM BKN007 OVC015 20/19 A2995 RMK AO2 SLP136

More Conditions Fewer Conditions

10-Day Weather Forecast

Almanac

Astronomy

Apr. 01, 2015 Rise Set
Actual Time
Civil Twilight
Nautical Twilight
Astronomical Twilight
Moon
Length of Visible Light
Length of Day
Tomorrow will be .
, % of the Moon is Illuminated

Today's Extremes

State Highs State Lows

Community

WunderPhotos

Upload Photos

1,809,930 photos uploaded!

WunderBlogs® & News

Nearby

Air Quality

  Air Quality AQ Index Pollutant
Not available.

Snow Depth

Station Depth Elevation

Earthquake Activity

City Distance Mag. Time & Date
Minimum magnitude displayed is 2.5.

Coastal Water Temperatures

Place Temperature

Stations

Nearby Weather Stations

Station Location Temp. Windchill Dew Point Humidity Wind Precip. Elev Updated Type